Airfield :
LOGIN :

Register | Disclaimer

   EN    FR    IT 

 










Legend :    VFR   Marginal VFR   IFR   Intensive IFR   Very Intensive IFR
Visi :
Ceiling :
>= 8 km
>= 3000ft
5 to 8 km
1000 to 3000 ft
1500m to 5 km
500 to 1000 ft
800 to 1500m
200 to 500 ft
< 800m
< 200 ft
Symbols :   Thunderstorms  Fog  Heavy snow  Heavy precipitations  Wind > 20 kt
SIGMETs :     Misc.  Thunderstorms  Icing  Turbulence  Mountain Waves  Volcanic Ashes






- Airport Elevation : 195 ft


LFMY - Salon de Provence

CURRENT METAR :
  • 231000Z AUTO 27009KT 230V300 9999 SCT042 20/11 Q1017 NOSIG

EXPIRED METARs :
  • 230930Z AUTO 32006KT 260V350 CAVOK 21/12 Q1017 NOSIG
  • 230900Z AUTO 32008KT 260V360 CAVOK 20/12 Q1017 NOSIG
  • 230830Z AUTO 30006KT 260V010 CAVOK 19/13 Q1017 NOSIG
  • 230800Z AUTO 33008KT 280V360 9999 NSC 18/12 Q1017
  • 230730Z AUTO 31005KT 270V350 CAVOK 19/14 Q1017 NOSIG
  • 230700Z AUTO 31003KT 260V360 9999 BKN019 BKN140 18/13 Q1016 NOSIG
  • 230630Z AUTO 31004KT 240V360 9999 BKN020 OVC140 16/13 Q1016 NOSIG
  • 230600Z AUTO 00000KT 9999 BKN017 OVC140 16/13 Q1016 BECMG 32010KT
  • 230530Z AUTO VRB02KT 9999 SCT017 OVC084 15/13 Q1016 NOSIG

TAF TAF LFMY
Valid from the 23 at 09:00 until the 24 at 09:00 UTC


230800Z 2309/2409 32010KT CAVOK TX24/2313Z TN11/2405Z
BECMG 2315/2317 24010KT
BECMG 2320/2322 VRB03KT



MET'MAP, your aeronautical weather chart ! - Copyright ORBIFLY December 2007 - Disclaimer

ORBIFLY MET'MAP TEAM :

Programming & Development : Alexandra Zaïnal
Original concept : Baudouin d'Aumeries
Technical & hardware support : Manuel Goepfert
Assistance : Marc-Olivier Méhu




SOURCES & CREDITS :

   NOAA